Welcome to Northern Hawkes Bay. New Zealand.
PWS Header
      nz Flag



Hit Counter


W3C Valid W3C Valid logo


    Wairoa

Select any of the Stations below to visit their websites.










Historic Data from Weather Underground
Select the location of interest below. Wairoa is the default. Please have patience, this Data is slow to load in.
Northern Hawkes Bay Historical Data
Daily Summary for April 29, 2017 Units:  English    Metric   Both
« Previous Day
Next Day »
Daily Weekly Monthly Yearly Custom
  High: Low: Average:
Temperature: 73.9 °F 55.4 °F 64 °F
Dew Point: 61.3 °F 49.5 °F 56.7 °F
Humidity: 88% 61% 77%
Wind Speed: 7.6mph 0mph 1.2mph
Wind Gust: 11.4mph - -
Wind- - South
Pressure: 29.9 in 29.6 in -
Precipitation: 0 in    
Historical Graphs
 
 
Tabular Data for April 29, 2017
Time Temperature Dew Point Pressure Wind Wind Speed Wind Gust Humidity Rainfall Rate (Hourly) solar
00:04 60.8 °F 51.6 °F 29.9 in North 1.6 mph 6.9 mph 72% 0 in 0 W/m2
00:24 58.6 °F 51.1 °F 29.9 in Calm     76% 0 in 0 W/m2
00:29 57.9 °F 50.4 °F 29.9 in Calm     76% 0 in 0 W/m2
00:34 57.4 °F 49.5 °F 29.9 in Calm     75% 0 in 0 W/m2
00:39 57.2 °F 49.6 °F 29.9 in Calm     76% 0 in 0 W/m2
00:44 57.4 °F 50.2 °F 29.9 in Calm     77% 0 in 0 W/m2
00:49 57.4 °F 50.2 °F 29.9 in Calm     77% 0 in 0 W/m2
00:54 57.2 °F 50.7 °F 29.9 in North 1.6 mph 2.2 mph 79% 0 in 0 W/m2
00:59 56.8 °F 51.1 °F 29.9 in North 0.7 mph 3.1 mph 81% 0 in 0 W/m2
01:04 56.5 °F 51.1 °F 29.9 in NNW 1.6 mph 3.8 mph 82% 0 in 0 W/m2
01:09 55.9 °F 50.9 °F 29.9 in Calm   3.8 mph 83% 0 in 0 W/m2
01:14 55.6 °F 51.3 °F 29.9 in NNW 2.2 mph 5.4 mph 85% 0 in 0 W/m2
01:19 55.6 °F 51.3 °F 29.9 in NW 0.7 mph 5.4 mph 85% 0 in 0 W/m2
01:24 55.4 °F 51.1 °F 29.9 in WNW 2.2 mph 3.8 mph 85% 0 in 0 W/m2
01:29 55.8 °F 51.6 °F 29.9 in NW 2.2 mph 5.4 mph 86% 0 in 0 W/m2
01:34 55.9 °F 51.8 °F 29.9 in NW 1.6 mph 5.4 mph 86% 0 in 0 W/m2
01:39 57.7 °F 53.6 °F 29.9 in North 1.6 mph 6 mph 86% 0 in 0 W/m2
01:44 59.5 °F 54.3 °F 29.9 in North 4.5 mph 7.6 mph 83% 0 in 0 W/m2
01:49 61 °F 53.4 °F 29.9 in North 4.5 mph 9.2 mph 76% 0 in 0 W/m2
01:54 61.5 °F 53.2 °F 29.9 in North 3.8 mph 9.2 mph 74% 0 in 0 W/m2
01:59 61.9 °F 53.1 °F 29.9 in North 6 mph 9.8 mph 73% 0 in 0 W/m2
02:04 61.7 °F 53.1 °F 29.9 in North 5.4 mph 9.8 mph 73% 0 in 0 W/m2
02:09 61.5 °F 52.9 °F 29.9 in North 6 mph 9.8 mph 73% 0 in 0 W/m2
02:14 61.3 °F 52.5 °F 29.9 in North 4.5 mph 9.8 mph 73% 0 in 0 W/m2
02:19 61.3 °F 52.5 °F 29.9 in NNW 5.4 mph 10.7 mph 73% 0 in 0 W/m2
02:24 61.2 °F 52.9 °F 29.9 in NW 4.5 mph 11.4 mph 74% 0 in 0 W/m2
02:29 61 °F 52.5 °F 29.9 in NW 3.8 mph 11.4 mph 74% 0 in 0 W/m2
02:34 60.8 °F 52.5 °F 29.9 in Calm   8.3 mph 74% 0 in 0 W/m2
02:39 60.1 °F 52.2 °F 29.9 in Calm   6 mph 75% 0 in 0 W/m2
02:44 59.5 °F 52 °F 29.9 in Calm     76% 0 in 0 W/m2
02:49 59.2 °F 52 °F 29.9 in Calm     77% 0 in 0 W/m2
02:54 58.6 °F 51.8 °F 29.9 in Calm     78% 0 in 0 W/m2
02:59 58.5 °F 52.3 °F 29.9 in Calm   2.2 mph 80% 0 in 0 W/m2
03:04 58.3 °F 52.5 °F 29.9 in NNW 1.6 mph 3.1 mph 81% 0 in 0 W/m2
03:09 58.3 °F 52.5 °F 29.9 in Calm   3.1 mph 81% 0 in 0 W/m2
03:14 58.3 °F 52.9 °F 29.9 in NW 0.7 mph 3.1 mph 82% 0 in 0 W/m2
03:19 58.8 °F 53.2 °F 29.9 in North 0.7 mph 4.5 mph 82% 0 in 0 W/m2
03:24 59 °F 53.2 °F 29.9 in North 0.7 mph 4.5 mph 81% 0 in 0 W/m2
03:29 59 °F 52.9 °F 29.9 in Calm   3.8 mph 80% 0 in 0 W/m2
03:34 58.8 °F 53.1 °F 29.9 in Calm   3.8 mph 81% 0 in 0 W/m2
03:39 58.5 °F 52.7 °F 29.9 in Calm     81% 0 in 0 W/m2
03:44 58.3 °F 53.2 °F 29.9 in North 0.7 mph 3.1 mph 83% 0 in 0 W/m2
03:49 58.8 °F 54 °F 29.9 in North 3.1 mph 4.5 mph 84% 0 in 0 W/m2
03:54 60.1 °F 54.1 °F 29.9 in North 3.8 mph 6.9 mph 81% 0 in 0 W/m2
03:59 61 °F 53.8 °F 29.9 in North 3.8 mph 7.6 mph 77% 0 in 0 W/m2
04:04 61.3 °F 53.4 °F 29.9 in North 4.5 mph 7.6 mph 75% 0 in 0 W/m2
04:20 62.8 °F 53.2 °F 29.9 in NNW 6.9 mph 11.4 mph 71% 0 in 0 W/m2
04:25 63.3 °F 53.8 °F 29.9 in NNW 7.6 mph 11.4 mph 71% 0 in 0 W/m2
04:30 63.5 °F 53.6 °F 29.9 in North 3.8 mph 11.4 mph 70% 0 in 0 W/m2
04:35 63 °F 53.4 °F 29.9 in NNE 3.8 mph 9.8 mph 71% 0 in 0 W/m2
04:40 62.8 °F 53.2 °F 29.9 in North 2.2 mph 9.8 mph 71% 0 in 0 W/m2
04:45 62.6 °F 53.1 °F 29.9 in North 2.2 mph 6 mph 71% 0 in 0 W/m2
04:50 62.2 °F 53.4 °F 29.9 in Calm   6 mph 73% 0 in 0 W/m2
04:55 61.3 °F 52.5 °F 29.9 in Calm   4.5 mph 73% 0 in 0 W/m2
05:00 60.4 °F 52.5 °F 29.9 in Calm     75% 0 in 0 W/m2
05:20 58.5 °F 52 °F 29.9 in Calm     79% 0 in 0 W/m2
05:25 58.3 °F 52.5 °F 29.9 in Calm   2.2 mph 81% 0 in 0 W/m2
05:30 57.9 °F 52.9 °F 29.9 in Calm   2.2 mph 83% 0 in 0 W/m2
05:35 57.4 °F 52.5 °F 29.9 in NW 0.7 mph 3.8 mph 84% 0 in 0 W/m2
05:40 57.4 °F 52.9 °F 29.9 in NW 1.6 mph 4.5 mph 85% 0 in 0 W/m2
05:46 57.2 °F 52.7 °F 29.9 in Calm   4.5 mph 85% 0 in 0 W/m2
05:51 56.8 °F 52.7 °F 29.9 in Calm   1.6 mph 86% 0 in 0 W/m2
05:56 56.7 °F 52.5 °F 29.9 in Calm     86% 0 in 0 W/m2
06:01 56.8 °F 53.1 °F 29.9 in Calm     87% 0 in 0 W/m2
06:06 56.8 °F 53.1 °F 29.9 in Calm   2.2 mph 87% 0 in 0 W/m2
06:11 56.8 °F 53.1 °F 29.9 in NNW 0.7 mph 3.8 mph 87% 0 in 0 W/m2
06:16 56.5 °F 52.7 °F 29.9 in NNW 0.7 mph 3.8 mph 87% 0 in 0 W/m2
06:21 56.3 °F 52.9 °F 29.9 in Calm   3.8 mph 88% 0 in 0 W/m2
06:26 56.3 °F 52.9 °F 29.9 in NW 0.7 mph 3.1 mph 88% 0 in 0 W/m2
06:31 56.5 °F 53.1 °F 29.9 in NNW 3.1 mph 5.4 mph 88% 0 in 0 W/m2
06:36 57.2 °F 53.8 °F 29.9 in North 2.2 mph 5.4 mph 88% 0 in 0 W/m2
06:41 57.9 °F 54.1 °F 29.9 in NNW 3.1 mph 5.4 mph 87% 0 in 0 W/m2
06:46 58.5 °F 54.3 °F 29.9 in NNW 1.6 mph 5.4 mph 86% 0 in 1 W/m2
06:51 59 °F 54.1 °F 29.9 in NNW 2.2 mph 5.4 mph 84% 0 in 2 W/m2
06:56 59.4 °F 54.1 °F 29.9 in NNW 1.6 mph 6 mph 83% 0 in 5 W/m2
07:01 59.7 °F 54.1 °F 29.9 in NW 4.5 mph 6 mph 82% 0 in 10 W/m2
07:06 59.7 °F 54 °F 29.9 in NW 3.1 mph 6 mph 81% 0 in 15 W/m2
07:11 59.5 °F 53.8 °F 29.9 in Calm   6 mph 81% 0 in 24 W/m2
07:16 59.4 °F 54 °F 29.9 in Calm   6 mph 82% 0 in 43 W/m2
07:21 59.7 °F 54.1 °F 29.9 in Calm     82% 0 in 87 W/m2
07:26 60.6 °F 55 °F 29.9 in Calm     82% 0 in 110 W/m2
07:31 62.2 °F 55.2 °F 29.9 in Calm     78% 0 in 128 W/m2
07:36 63.3 °F 54.9 °F 29.9 in Calm     74% 0 in 146 W/m2
07:41 65.1 °F 57.4 °F 29.9 in Calm     76% 0 in 129 W/m2
07:46 66.2 °F 56.1 °F 29.9 in Calm     70% 0 in 142 W/m2
07:51 66.6 °F 56.1 °F 29.9 in Calm     69% 0 in 134 W/m2
07:56 66.2 °F 55.8 °F 29.9 in Calm     69% 0 in 97 W/m2
08:01 64.8 °F 54.9 °F 29.9 in Calm     70% 0 in 85 W/m2
08:06 63 °F 53.8 °F 29.9 in Calm     72% 0 in 84 W/m2
08:11 62.2 °F 54.7 °F 29.9 in Calm     76% 0 in 103 W/m2
08:16 62.2 °F 55 °F 29.9 in Calm     77% 0 in 90 W/m2
08:21 62.1 °F 55 °F 29.9 in Calm     78% 0 in 87 W/m2
08:26 62.2 °F 55.8 °F 29.9 in Calm     79% 0 in 88 W/m2
08:31 62.2 °F 55.2 °F 29.9 in Calm     78% 0 in 96 W/m2
08:36 62.6 °F 55.8 °F 29.9 in Calm     78% 0 in 199 W/m2
08:41 63.7 °F 56.7 °F 29.9 in Calm     78% 0 in 196 W/m2
08:46 64 °F 55.9 °F 29.9 in Calm     75% 0 in 150 W/m2
08:51 64 °F 55.2 °F 29.9 in Calm     73% 0 in 150 W/m2
08:56 63.9 °F 55.4 °F 29.9 in Calm     74% 0 in 133 W/m2
09:01 63.7 °F 55.2 °F 29.9 in NNW 0.7 mph 3.1 mph 74% 0 in 120 W/m2
09:06 63.3 °F 55.2 °F 29.9 in NNW 0.7 mph 4.5 mph 75% 0 in 118 W/m2
09:11 63.3 °F 55.6 °F 29.9 in Calm   4.5 mph 76% 0 in 125 W/m2
09:16 63.5 °F 55.6 °F 29.9 in Calm   2.2 mph 75% 0 in 150 W/m2
09:21 63.7 °F 55.9 °F 29.9 in NNW 0.7 mph 3.8 mph 76% 0 in 234 W/m2
09:26 64 °F 56.3 °F 29.9 in NW 3.8 mph 6 mph 76% 0 in 188 W/m2
09:31 64.8 °F 57.4 °F 29.9 in NW 2.2 mph 6 mph 77% 0 in 397 W/m2
09:36 66 °F 57.9 °F 29.9 in NNW 1.6 mph 5.4 mph 75% 0 in 319 W/m2
09:41 67.3 °F 58.5 °F 29.9 in NW 0.7 mph 5.4 mph 73% 0 in 114 W/m2
09:46 67.8 °F 58.5 °F 29.9 in NW 0.7 mph 4.5 mph 72% 0 in 146 W/m2
09:51 68.7 °F 58.3 °F 29.9 in NNW 3.8 mph 5.4 mph 69% 0 in 197 W/m2
09:56 68.9 °F 57.6 °F 29.9 in North 3.1 mph 5.4 mph 67% 0 in 203 W/m2
10:01 68.4 °F 57 °F 29.9 in North 1.6 mph 5.4 mph 67% 0 in 199 W/m2
10:06 68.7 °F 57.7 °F 29.9 in Calm   4.5 mph 68% 0 in 183 W/m2
10:11 68.9 °F 57.9 °F 29.9 in Calm   2.2 mph 68% 0 in 172 W/m2
10:16 69.1 °F 58.1 °F 29.9 in Calm     68% 0 in 181 W/m2
10:21 69.1 °F 58.1 °F 29.9 in Calm     68% 0 in 195 W/m2
10:26 69.3 °F 58.3 °F 29.9 in NNW 1.6 mph 3.1 mph 68% 0 in 164 W/m2
10:31 68.9 °F 58.6 °F 29.9 in NNW 0.7 mph 3.1 mph 70% 0 in 145 W/m2
10:36 68.5 °F 58.8 °F 29.9 in NW 3.1 mph 3.8 mph 71% 0 in 114 W/m2
10:42 67.8 °F 59.4 °F 29.9 in NW 1.6 mph 4.5 mph 74% 0 in 75 W/m2
10:47 67.3 °F 59.2 °F 29.9 in WNW 1.6 mph 4.5 mph 75% 0 in 93 W/m2
10:52 66.9 °F 59.2 °F 29.9 in Calm   3.1 mph 76% 0 in 96 W/m2
10:57 66.7 °F 59 °F 29.9 in Calm   2.2 mph 76% 0 in 98 W/m2
11:02 66.9 °F 59.5 °F 29.9 in Calm   2.2 mph 77% 0 in 115 W/m2
11:07 67.5 °F 60.1 °F 29.9 in Calm   0.7 mph 77% 0 in 112 W/m2
11:12 67.5 °F 60.1 °F 29.9 in Calm   0.7 mph 77% 0 in 110 W/m2
11:17 67.5 °F 60.1 °F 29.9 in Calm   0.7 mph 77% 0 in 135 W/m2
11:22 67.6 °F 60.3 °F 29.9 in Calm     77% 0 in 123 W/m2
11:27 67.6 °F 59.7 °F 29.9 in Calm     76% 0 in 142 W/m2
11:32 68 °F 59.7 °F 29.9 in NW 0.7 mph 3.1 mph 75% 0 in 227 W/m2
11:37 68.9 °F 60.6 °F 29.9 in NW 1.6 mph 3.1 mph 75% 0 in 465 W/m2
11:42 70.3 °F 61 °F 29.9 in NW 1.6 mph 3.8 mph 72% 0 in 471 W/m2
11:47 72 °F 61.3 °F 29.9 in NNW 3.1 mph 6 mph 69% 0 in 650 W/m2
11:52 73.9 °F 61 °F 29.9 in North 3.8 mph 6 mph 64% 0 in 564 W/m2
11:57 73.9 °F 60.6 °F 29.9 in NNE 3.1 mph 6 mph 63% 0 in 512 W/m2
12:02 73.9 °F 60.1 °F 29.9 in NNE 3.1 mph 6 mph 62% 0 in 241 W/m2
12:07 73.2 °F 59 °F 29.9 in NNE 3.8 mph 6 mph 61% 0 in 193 W/m2
12:12 72.3 °F 59 °F 29.9 in NNE 2.2 mph 6 mph 63% 0 in 187 W/m2
12:32 70.7 °F 59.2 °F 29.8 in North 2.2 mph 6 mph 67% 0 in 134 W/m2
12:37 70.7 °F 59.2 °F 29.8 in North 3.1 mph 6 mph 67% 0 in 125 W/m2
12:42 70.2 °F 58.6 °F 29.8 in North 5.4 mph 7.6 mph 67% 0 in 111 W/m2
12:47 69.8 °F 58.8 °F 29.8 in North 4.5 mph 10.7 mph 68% 0 in 92 W/m2
12:52 69.4 °F 59.4 °F 29.8 in North 3.1 mph 10.7 mph 70% 0 in 81 W/m2
13:12 68.5 °F 57.9 °F 29.8 in North 5.4 mph 7.6 mph 69% 0 in 77 W/m2
13:17 68.5 °F 57.9 °F 29.8 in North 2.2 mph 6.9 mph 69% 0 in 69 W/m2
13:22 68.5 °F 57.9 °F 29.8 in NNE 3.8 mph 6.9 mph 69% 0 in 61 W/m2
13:26 68.5 °F 57.9 °F 29.8 in North 1.6 mph 6.9 mph 69% 0 in 60 W/m2
13:32 68.4 °F 57.7 °F 29.8 in North 2.2 mph 6 mph 69% 0 in 61 W/m2
13:37 68.4 °F 57.7 °F 29.8 in Calm   6 mph 69% 0 in 64 W/m2
13:42 68.4 °F 58.3 °F 29.8 in NNE 1.6 mph 5.4 mph 70% 0 in 64 W/m2
13:48 68.4 °F 58.3 °F 29.8 in North 0.7 mph 3.1 mph 70% 0 in 72 W/m2
13:53 68.2 °F 57.9 °F 29.8 in North 0.7 mph 3.8 mph 70% 0 in 73 W/m2
13:58 68.2 °F 57.9 °F 29.8 in Calm   3.8 mph 70% 0 in 66 W/m2
14:03 68.2 °F 57.9 °F 29.8 in Calm   3.1 mph 70% 0 in 59 W/m2
14:08 68 °F 58.3 °F 29.8 in Calm   3.1 mph 71% 0 in 55 W/m2
14:12 67.8 °F 58.5 °F 29.8 in Calm   3.8 mph 72% 0 in 52 W/m2
14:18 67.8 °F 58.5 °F 29.8 in Calm   3.8 mph 72% 0 in 45 W/m2
14:23 67.8 °F 58.8 °F 29.8 in Calm   1.6 mph 73% 0 in 41 W/m2
14:28 67.6 °F 58.6 °F 29.8 in Calm   0.7 mph 73% 0 in 39 W/m2
14:33 67.5 °F 58.5 °F 29.8 in Calm   4.5 mph 73% 0 in 39 W/m2
14:38 67.3 °F 58.5 °F 29.8 in Calm   4.5 mph 73% 0 in 40 W/m2
14:43 67.5 °F 58.5 °F 29.8 in Calm   3.8 mph 73% 0 in 40 W/m2
14:47 67.5 °F 58.8 °F 29.8 in Calm   2.2 mph 74% 0 in 45 W/m2
14:53 67.5 °F 58.5 °F 29.8 in NNE 0.7 mph 3.1 mph 73% 0 in 50 W/m2
14:58 67.5 °F 58.5 °F 29.8 in Calm   3.1 mph 73% 0 in 48 W/m2
15:03 67.5 °F 58.5 °F 29.8 in Calm   2.2 mph 73% 0 in 60 W/m2
15:08 67.8 °F 58.8 °F 29.8 in Calm     73% 0 in 56 W/m2
15:12 67.8 °F 59.4 °F 29.8 in Calm     74% 0 in 51 W/m2
15:18 67.5 °F 59.4 °F 29.8 in Calm     75% 0 in 40 W/m2
15:23 67.3 °F 59.2 °F 29.8 in Calm   2.2 mph 75% 0 in 38 W/m2
15:27 66.9 °F 58.8 °F 29.8 in Calm   2.2 mph 75% 0 in 37 W/m2
15:33 66.7 °F 59 °F 29.8 in Calm     76% 0 in 38 W/m2
15:37 66.6 °F 59.2 °F 29.8 in Calm     77% 0 in 47 W/m2
15:42 66.6 °F 59.5 °F 29.8 in Calm     78% 0 in 27 W/m2
15:48 66.6 °F 59.5 °F 29.8 in Calm     78% 0 in 22 W/m2
15:52 66.4 °F 59.7 °F 29.8 in Calm     79% 0 in 25 W/m2
15:58 66.2 °F 59.9 °F 29.8 in Calm     80% 0 in 32 W/m2
16:03 65.8 °F 59.9 °F 29.8 in Calm     81% 0 in 30 W/m2
16:07 65.5 °F 59.5 °F 29.8 in Calm     81% 0 in 25 W/m2
16:13 65.3 °F 59.7 °F 29.8 in Calm     82% 0 in 25 W/m2
16:18 65.1 °F 59.5 °F 29.8 in Calm     82% 0 in 24 W/m2
16:23 64.9 °F 59.7 °F 29.8 in Calm   0.7 mph 83% 0 in 21 W/m2
16:28 64.9 °F 59.7 °F 29.8 in Calm   1.6 mph 83% 0 in 15 W/m2
16:32 64.8 °F 59.7 °F 29.8 in Calm   1.6 mph 84% 0 in 14 W/m2
16:38 64.6 °F 59.7 °F 29.8 in Calm     84% 0 in 13 W/m2
16:44 64.4 °F 59.5 °F 29.8 in Calm     84% 0 in 9 W/m2
16:49 64.4 °F 59.5 °F 29.8 in Calm     84% 0 in 5 W/m2
16:52 64.2 °F 59 °F 29.8 in Calm     83% 0 in 5 W/m2
16:57 64 °F 59.2 °F 29.8 in Calm     84% 0 in 5 W/m2
17:02 63.9 °F 59 °F 29.8 in Calm     84% 0 in 3 W/m2
17:06 63.5 °F 58.8 °F 29.8 in Calm   1.6 mph 85% 0 in 1 W/m2
17:12 63.5 °F 58.8 °F 29.8 in Calm   1.6 mph 85% 0 in 0 W/m2
17:16 63.3 °F 58.8 °F 29.8 in Calm   0.7 mph 85% 0 in 0 W/m2
17:21 63.3 °F 58.8 °F 29.8 in Calm     85% 0 in 0 W/m2
17:26 63.5 °F 58.8 °F 29.8 in Calm   4.5 mph 85% 0 in 0 W/m2
17:32 64.4 °F 59.7 °F 29.8 in Calm   5.4 mph 85% 0 in 0 W/m2
17:37 64.6 °F 60.1 °F 29.8 in Calm   5.4 mph 85% 0 in 0 W/m2
17:41 64.4 °F 59.5 °F 29.8 in Calm     84% 0 in 0 W/m2
17:46 64.4 °F 59.2 °F 29.7 in ENE 2.2 mph 3.8 mph 83% 0 in 0 W/m2
17:51 64.6 °F 59 °F 29.7 in NE 2.2 mph 5.4 mph 82% 0 in 0 W/m2
17:56 64.8 °F 59.2 °F 29.8 in NNE 2.2 mph 5.4 mph 82% 0 in 0 W/m2
18:01 65.1 °F 58.8 °F 29.8 in NNE 3.1 mph 4.5 mph 80% 0 in 0 W/m2
18:06 65.5 °F 58.5 °F 29.8 in NNE 2.2 mph 6 mph 78% 0 in 0 W/m2
18:12 65.7 °F 58.6 °F 29.8 in NNE 3.1 mph 6.9 mph 78% 0 in 0 W/m2
18:16 65.8 °F 58.5 °F 29.8 in North 4.5 mph 9.2 mph 77% 0 in 0 W/m2
18:21 65.8 °F 58.8 °F 29.8 in North 3.1 mph 9.2 mph 78% 0 in 0 W/m2
18:26 65.5 °F 58.8 °F 29.7 in North 1.6 mph 7.6 mph 79% 0 in 0 W/m2
18:32 65.3 °F 58.6 °F 29.7 in North 5.4 mph 8.3 mph 79% 0 in 0 W/m2
18:36 65.5 °F 58.8 °F 29.7 in North 3.8 mph 8.3 mph 79% 0 in 0 W/m2
18:41 65.5 °F 58.5 °F 29.8 in North 3.8 mph 8.3 mph 78% 0 in 0 W/m2
18:46 65.8 °F 58.5 °F 29.8 in NNE 3.1 mph 9.8 mph 77% 0 in 0 W/m2
18:52 66 °F 58.3 °F 29.7 in NNE 3.8 mph 10.7 mph 76% 0 in 0 W/m2
18:56 66 °F 58.6 °F 29.7 in North 3.8 mph 10.7 mph 77% 0 in 0 W/m2
19:01 66 °F 58.3 °F 29.7 in North 4.5 mph 7.6 mph 76% 0 in 0 W/m2
19:06 66 °F 58.3 °F 29.7 in North 3.1 mph 9.8 mph 76% 0 in 0 W/m2
19:11 65.8 °F 58.1 °F 29.7 in North 2.2 mph 9.8 mph 76% 0 in 0 W/m2
19:17 66.4 °F 58.6 °F 29.7 in NE 2.2 mph 7.6 mph 76% 0 in 0 W/m2
19:21 65.5 °F 58.1 °F 29.7 in NE 1.6 mph 6.9 mph 77% 0 in 0 W/m2
19:26 65.3 °F 58.3 °F 29.7 in NE 0.7 mph 6 mph 78% 0 in 0 W/m2
19:31 65.3 °F 58.3 °F 29.7 in NNE 0.7 mph 6.9 mph 78% 0 in 0 W/m2
19:36 65.7 °F 58.6 °F 29.7 in NNE 3.1 mph 6.9 mph 78% 0 in 0 W/m2
19:41 65.1 °F 58.1 °F 29.7 in Calm   6.9 mph 78% 0 in 0 W/m2
19:47 65.1 °F 58.1 °F 29.7 in Calm   6.9 mph 78% 0 in 0 W/m2
19:51 65.1 °F 58.1 °F 29.7 in NNE 3.1 mph 8.3 mph 78% 0 in 0 W/m2
19:56 65.7 °F 59 °F 29.7 in NNE 2.2 mph 8.3 mph 79% 0 in 0 W/m2
20:01 65.1 °F 58.5 °F 29.7 in NNE 3.8 mph 6.9 mph 79% 0 in 0 W/m2
20:07 65.1 °F 58.5 °F 29.7 in Calm   6.9 mph 79% 0 in 0 W/m2
20:11 65.1 °F 58.1 °F 29.7 in Calm   5.4 mph 78% 0 in 0 W/m2
20:16 66.2 °F 59.2 °F 29.7 in Calm     78% 0 in 0 W/m2
20:21 65.1 °F 58.1 °F 29.7 in Calm     78% 0 in 0 W/m2
20:26 65.1 °F 58.1 °F 29.7 in Calm     78% 0 in 0 W/m2
20:31 64.9 °F 57.9 °F 29.7 in Calm     78% 0 in 0 W/m2
20:36 64.9 °F 58.3 °F 29.7 in Calm     79% 0 in 0 W/m2
20:41 64.8 °F 58.1 °F 29.7 in Calm     79% 0 in 0 W/m2
20:46 64.8 °F 58.1 °F 29.7 in Calm     79% 0 in 0 W/m2
20:51 64.8 °F 58.1 °F 29.7 in Calm     79% 0 in 0 W/m2
20:56 65.7 °F 59 °F 29.7 in Calm     79% 0 in 0 W/m2
21:01 64.8 °F 58.1 °F 29.7 in Calm     79% 0 in 0 W/m2
21:06 64.8 °F 57.7 °F 29.7 in Calm     78% 0 in 0 W/m2
21:11 64.8 °F 58.1 °F 29.7 in Calm     79% 0 in 0 W/m2
21:16 64.9 °F 58.3 °F 29.7 in Calm     79% 0 in 0 W/m2
21:21 64.8 °F 58.1 °F 29.7 in Calm     79% 0 in 0 W/m2
21:26 64.8 °F 58.1 °F 29.7 in Calm     79% 0 in 0 W/m2
21:31 64.8 °F 58.1 °F 29.7 in Calm     79% 0 in 0 W/m2
21:36 63.9 °F 57.2 °F 29.7 in Calm     79% 0 in 0 W/m2
21:41 64.8 °F 58.1 °F 29.7 in Calm     79% 0 in 0 W/m2
21:46 64.8 °F 58.1 °F 29.7 in Calm     79% 0 in 0 W/m2
21:51 64.9 °F 58.3 °F 29.7 in Calm     79% 0 in 0 W/m2
21:56 64.4 °F 57.7 °F 29.7 in Calm     79% 0 in 0 W/m2
22:01 64.8 °F 58.1 °F 29.7 in Calm     79% 0 in 0 W/m2
22:06 64.8 °F 58.5 °F 29.7 in Calm     80% 0 in 0 W/m2
22:11 64.6 °F 58.6 °F 29.7 in Calm     81% 0 in 0 W/m2
22:16 63.7 °F 58.1 °F 29.7 in Calm     82% 0 in 0 W/m2
22:21 64.8 °F 59.2 °F 29.7 in Calm     82% 0 in 0 W/m2
22:26 64.9 °F 59 °F 29.7 in Calm     81% 0 in 0 W/m2
22:31 65.3 °F 59 °F 29.7 in Calm     80% 0 in 0 W/m2
22:36 65.5 °F 59.2 °F 29.7 in Calm     80% 0 in 0 W/m2
22:41 65.3 °F 59 °F 29.7 in Calm     80% 0 in 0 W/m2
22:46 65.3 °F 58.6 °F 29.7 in Calm     79% 0 in 0 W/m2
22:51 65.3 °F 58.6 °F 29.6 in Calm   2.2 mph 79% 0 in 0 W/m2
22:56 65.1 °F 58.1 °F 29.6 in NNE 3.1 mph 6 mph 78% 0 in 0 W/m2
23:01 65.7 °F 58.6 °F 29.6 in NNE 7.6 mph 9.8 mph 78% 0 in 0 W/m2
23:06 66.2 °F 58.1 °F 29.6 in North 5.4 mph 9.8 mph 75% 0 in 0 W/m2
23:11 66.4 °F 58.3 °F 29.6 in North 2.2 mph 9.8 mph 75% 0 in 0 W/m2
23:16 65.7 °F 57.9 °F 29.6 in Calm   9.2 mph 76% 0 in 0 W/m2
23:21 66.2 °F 58.1 °F 29.6 in NNE 4.5 mph 7.6 mph 75% 0 in 0 W/m2
23:26 66.2 °F 58.1 °F 29.6 in North 1.6 mph 7.6 mph 75% 0 in 0 W/m2
23:31 66.2 °F 58.1 °F 29.6 in NNE 3.1 mph 9.2 mph 75% 0 in 0 W/m2
23:36 65.7 °F 57.9 °F 29.6 in NE 4.5 mph 9.2 mph 76% 0 in 0 W/m2
23:41 66 °F 58.3 °F 29.6 in NE 4.5 mph 7.6 mph 76% 0 in 0 W/m2
23:46 66 °F 58.3 °F 29.6 in NE 3.1 mph 9.2 mph 76% 0 in 0 W/m2
23:52 65.8 °F 57.7 °F 29.6 in NE 3.1 mph 9.2 mph 75% 0 in 0 W/m2
23:57 65.3 °F 57.2 °F 29.6 in NNE 4.5 mph 9.2 mph 75% 0 in 0 W/m2
Northern Hawkes Bay. New Zealand Historic Data
Compliments of Weather Underground - 2 mb